This is the latest recevied weather packets stored in our database for station/object OE3BCB-14. If no packets are shown the sender has not sent any weather packets the latest 10 day(s).
| Time | Temp. | Humidity | Pressure | Rain* | Wind** | Luminosity | Snow |
|---|---|---|---|---|---|---|---|
| 1777878701 | 24.44° C | 39% | 1016.7 hPa | - | - | 66 W/m² | - |
| 1777878398 | 25° C | 39% | 1016.7 hPa | - | - | 62 W/m² | - |
| 1777878096 | 24.44° C | 40% | 1016.7 hPa | - | - | 58 W/m² | - |
| 1777877793 | 23.89° C | 40% | 1016.7 hPa | - | - | 52 W/m² | - |
| 1777877189 | 23.89° C | 40% | 1016.7 hPa | - | - | 40 W/m² | - |
| 1777876886 | 24.44° C | 40% | 1016.7 hPa | - | - | 41 W/m² | - |
| 1777876281 | 25.56° C | 41% | 1016.6 hPa | - | - | 140 W/m² | - |
| 1777875979 | 25° C | 42% | 1016.6 hPa | - | - | 150 W/m² | - |
| 1777875677 | 23.89° C | 43% | 1016.6 hPa | - | - | 152 W/m² | - |
| 1777875374 | 22.78° C | 43% | 1016.6 hPa | - | - | 146 W/m² | - |
| 1777875072 | 21.67° C | 43% | 1016.6 hPa | - | - | 143 W/m² | - |
| 1777874769 | 21.67° C | 44% | 1016.6 hPa | - | - | 139 W/m² | - |
| 1777874467 | 21.11° C | 44% | 1016.5 hPa | - | - | 133 W/m² | - |
| 1777873862 | 20° C | 45% | 1016.6 hPa | - | - | 124 W/m² | - |
| 1777873560 | 18.89° C | 46% | 1016.5 hPa | - | - | 107 W/m² | - |
| 1777873257 | 18.89° C | 45% | 1016.5 hPa | - | - | 68 W/m² | - |
| 1777872652 | 17.78° C | 46% | 1016.5 hPa | - | - | 34 W/m² | - |
| 1777872350 | 17.22° C | 46% | 1016.5 hPa | - | - | 35 W/m² | - |
| 1777872048 | 17.22° C | 46% | 1016.5 hPa | - | - | 61 W/m² | - |
| 1777871443 | 16.67° C | 46% | 1016.5 hPa | - | - | 73 W/m² | - |
| 1777871140 | 16.11° C | 46% | 1016.5 hPa | - | - | 56 W/m² | - |
| 1777870838 | 16.11° C | 46% | 1016.4 hPa | - | - | 39 W/m² | - |
| 1777870536 | 16.11° C | 46% | 1016.3 hPa | - | - | 36 W/m² | - |
| 1777870233 | 15.56° C | 45% | 1016.2 hPa | - | - | 33 W/m² | - |
| 1777869931 | 15.56° C | 46% | 1016.2 hPa | - | - | 43 W/m² | - |
* Rain since midnight (hover to see other rain measurements)
** Current wind speed in m/s (hover to see current wind gust speed)